sensor_id;sensor_type;location;lat;lon;timestamp;P1;durP1;ratioP1;P2;durP2;ratioP2
20397;SDS011;10358;49.590;11.030;2024-01-06T00:01:35;14.40;;;7.53;;
20397;SDS011;10358;49.590;11.030;2024-01-06T00:04:00;11.87;;;7.07;;
20397;SDS011;10358;49.590;11.030;2024-01-06T00:06:26;12.83;;;6.90;;
20397;SDS011;10358;49.590;11.030;2024-01-06T00:08:51;14.83;;;6.77;;
20397;SDS011;10358;49.590;11.030;2024-01-06T00:11:20;12.03;;;6.30;;
20397;SDS011;10358;49.590;11.030;2024-01-06T00:13:47;12.93;;;6.20;;
20397;SDS011;10358;49.590;11.030;2024-01-06T00:16:13;11.50;;;5.60;;
20397;SDS011;10358;49.590;11.030;2024-01-06T00:18:42;12.97;;;5.93;;
20397;SDS011;10358;49.590;11.030;2024-01-06T00:21:08;11.30;;;5.57;;
20397;SDS011;10358;49.590;11.030;2024-01-06T00:23:34;10.27;;;5.63;;
20397;SDS011;10358;49.590;11.030;2024-01-06T00:25:59;8.87;;;5.37;;
20397;SDS011;10358;49.590;11.030;2024-01-06T00:28:25;10.60;;;5.80;;
20397;SDS011;10358;49.590;11.030;2024-01-06T00:30:50;12.40;;;5.50;;
20397;SDS011;10358;49.590;11.030;2024-01-06T00:33:16;12.33;;;5.47;;
20397;SDS011;10358;49.590;11.030;2024-01-06T00:35:41;10.77;;;5.73;;
20397;SDS011;10358;49.590;11.030;2024-01-06T00:38:07;10.27;;;5.57;;
20397;SDS011;10358;49.590;11.030;2024-01-06T00:40:32;10.10;;;5.77;;
20397;SDS011;10358;49.590;11.030;2024-01-06T00:42:58;9.60;;;5.27;;
20397;SDS011;10358;49.590;11.030;2024-01-06T00:45:24;7.90;;;4.63;;
20397;SDS011;10358;49.590;11.030;2024-01-06T00:47:50;9.10;;;5.37;;
20397;SDS011;10358;49.590;11.030;2024-01-06T00:50:15;10.20;;;5.23;;
20397;SDS011;10358;49.590;11.030;2024-01-06T00:52:44;9.37;;;5.60;;
20397;SDS011;10358;49.590;11.030;2024-01-06T00:55:09;12.53;;;5.53;;
20397;SDS011;10358;49.590;11.030;2024-01-06T00:57:35;10.57;;;5.70;;
20397;SDS011;10358;49.590;11.030;2024-01-06T01:00:03;11.97;;;5.90;;
20397;SDS011;10358;49.590;11.030;2024-01-06T01:02:31;9.80;;;5.43;;
20397;SDS011;10358;49.590;11.030;2024-01-06T01:04:57;12.30;;;5.83;;
20397;SDS011;10358;49.590;11.030;2024-01-06T01:07:23;12.40;;;5.63;;
20397;SDS011;10358;49.590;11.030;2024-01-06T01:09:49;12.33;;;6.43;;
20397;SDS011;10358;49.590;11.030;2024-01-06T01:12:15;14.80;;;7.60;;
20397;SDS011;10358;49.590;11.030;2024-01-06T01:14:40;13.73;;;7.40;;
20397;SDS011;10358;49.590;11.030;2024-01-06T01:17:06;12.70;;;7.30;;
20397;SDS011;10358;49.590;11.030;2024-01-06T01:19:31;18.03;;;7.87;;
20397;SDS011;10358;49.590;11.030;2024-01-06T01:21:57;14.27;;;8.30;;
20397;SDS011;10358;49.590;11.030;2024-01-06T01:24:23;15.40;;;7.93;;
20397;SDS011;10358;49.590;11.030;2024-01-06T01:26:49;13.83;;;7.60;;
20397;SDS011;10358;49.590;11.030;2024-01-06T01:29:15;18.90;;;7.23;;
20397;SDS011;10358;49.590;11.030;2024-01-06T01:31:42;13.47;;;7.77;;
20397;SDS011;10358;49.590;11.030;2024-01-06T01:34:07;14.43;;;7.27;;
20397;SDS011;10358;49.590;11.030;2024-01-06T01:36:33;16.03;;;7.60;;
20397;SDS011;10358;49.590;11.030;2024-01-06T01:38:58;15.83;;;7.23;;
20397;SDS011;10358;49.590;11.030;2024-01-06T01:41:24;13.53;;;7.67;;
20397;SDS011;10358;49.590;11.030;2024-01-06T01:43:50;14.23;;;7.43;;
20397;SDS011;10358;49.590;11.030;2024-01-06T01:46:23;14.30;;;7.37;;
20397;SDS011;10358;49.590;11.030;2024-01-06T01:48:56;12.57;;;7.80;;
20397;SDS011;10358;49.590;11.030;2024-01-06T01:51:24;15.67;;;7.53;;
20397;SDS011;10358;49.590;11.030;2024-01-06T01:53:53;14.00;;;6.80;;
20397;SDS011;10358;49.590;11.030;2024-01-06T01:56:19;11.87;;;6.97;;
20397;SDS011;10358;49.590;11.030;2024-01-06T01:58:46;11.23;;;6.67;;
20397;SDS011;10358;49.590;11.030;2024-01-06T02:01:12;12.53;;;6.63;;
20397;SDS011;10358;49.590;11.030;2024-01-06T02:03:40;10.70;;;6.83;;
20397;SDS011;10358;49.590;11.030;2024-01-06T02:06:12;12.50;;;7.10;;
20397;SDS011;10358;49.590;11.030;2024-01-06T02:08:39;13.23;;;7.13;;
20397;SDS011;10358;49.590;11.030;2024-01-06T02:11:06;12.33;;;6.90;;
20397;SDS011;10358;49.590;11.030;2024-01-06T02:13:35;12.97;;;6.97;;
20397;SDS011;10358;49.590;11.030;2024-01-06T02:16:05;13.40;;;7.23;;
20397;SDS011;10358;49.590;11.030;2024-01-06T02:18:31;12.63;;;6.83;;
20397;SDS011;10358;49.590;11.030;2024-01-06T02:20:57;13.77;;;7.43;;
20397;SDS011;10358;49.590;11.030;2024-01-06T02:23:26;16.33;;;7.30;;
20397;SDS011;10358;49.590;11.030;2024-01-06T02:25:52;13.77;;;6.80;;
20397;SDS011;10358;49.590;11.030;2024-01-06T02:28:17;13.40;;;7.10;;
20397;SDS011;10358;49.590;11.030;2024-01-06T02:30:43;13.40;;;7.23;;
20397;SDS011;10358;49.590;11.030;2024-01-06T02:33:09;12.47;;;7.33;;
20397;SDS011;10358;49.590;11.030;2024-01-06T02:35:34;14.17;;;7.30;;
20397;SDS011;10358;49.590;11.030;2024-01-06T02:38:00;12.67;;;6.83;;
20397;SDS011;10358;49.590;11.030;2024-01-06T02:40:26;12.17;;;6.93;;
20397;SDS011;10358;49.590;11.030;2024-01-06T02:42:51;14.17;;;7.30;;
20397;SDS011;10358;49.590;11.030;2024-01-06T02:45:17;17.53;;;7.13;;
20397;SDS011;10358;49.590;11.030;2024-01-06T02:47:42;16.47;;;7.47;;
20397;SDS011;10358;49.590;11.030;2024-01-06T02:50:08;17.63;;;7.23;;
20397;SDS011;10358;49.590;11.030;2024-01-06T02:52:34;14.87;;;7.20;;
20397;SDS011;10358;49.590;11.030;2024-01-06T02:54:59;14.63;;;6.70;;
20397;SDS011;10358;49.590;11.030;2024-01-06T02:57:26;13.30;;;6.87;;
20397;SDS011;10358;49.590;11.030;2024-01-06T02:59:53;13.53;;;6.93;;
20397;SDS011;10358;49.590;11.030;2024-01-06T03:02:18;15.03;;;7.37;;
20397;SDS011;10358;49.590;11.030;2024-01-06T03:04:44;10.40;;;6.53;;
20397;SDS011;10358;49.590;11.030;2024-01-06T03:07:09;13.70;;;5.97;;
20397;SDS011;10358;49.590;11.030;2024-01-06T03:09:35;12.80;;;7.00;;
20397;SDS011;10358;49.590;11.030;2024-01-06T03:12:01;13.50;;;6.90;;
20397;SDS011;10358;49.590;11.030;2024-01-06T03:14:26;12.53;;;7.30;;
20397;SDS011;10358;49.590;11.030;2024-01-06T03:16:52;11.57;;;6.67;;
20397;SDS011;10358;49.590;11.030;2024-01-06T03:19:17;13.97;;;7.27;;
20397;SDS011;10358;49.590;11.030;2024-01-06T03:21:43;10.83;;;7.00;;
20397;SDS011;10358;49.590;11.030;2024-01-06T03:24:08;11.47;;;7.10;;
20397;SDS011;10358;49.590;11.030;2024-01-06T03:26:34;14.13;;;6.77;;
20397;SDS011;10358;49.590;11.030;2024-01-06T03:29:00;17.67;;;7.63;;
20397;SDS011;10358;49.590;11.030;2024-01-06T03:31:27;14.27;;;7.00;;
20397;SDS011;10358;49.590;11.030;2024-01-06T03:33:53;11.10;;;7.00;;
20397;SDS011;10358;49.590;11.030;2024-01-06T03:36:20;12.23;;;7.20;;
20397;SDS011;10358;49.590;11.030;2024-01-06T03:38:46;12.63;;;6.70;;
20397;SDS011;10358;49.590;11.030;2024-01-06T03:41:12;15.80;;;6.70;;
20397;SDS011;10358;49.590;11.030;2024-01-06T03:43:37;11.90;;;6.80;;
20397;SDS011;10358;49.590;11.030;2024-01-06T03:46:03;15.20;;;7.27;;
20397;SDS011;10358;49.590;11.030;2024-01-06T03:48:29;10.93;;;6.50;;
20397;SDS011;10358;49.590;11.030;2024-01-06T03:50:57;15.07;;;7.60;;
20397;SDS011;10358;49.590;11.030;2024-01-06T03:53:24;12.30;;;6.90;;
20397;SDS011;10358;49.590;11.030;2024-01-06T03:55:49;12.83;;;6.77;;
20397;SDS011;10358;49.590;11.030;2024-01-06T03:58:15;14.60;;;7.23;;
20397;SDS011;10358;49.590;11.030;2024-01-06T04:00:40;12.27;;;6.50;;
20397;SDS011;10358;49.590;11.030;2024-01-06T04:03:06;14.97;;;7.10;;
20397;SDS011;10358;49.590;11.030;2024-01-06T04:05:32;14.43;;;7.60;;
20397;SDS011;10358;49.590;11.030;2024-01-06T04:07:57;12.77;;;6.97;;
20397;SDS011;10358;49.590;11.030;2024-01-06T04:10:24;14.80;;;8.57;;
20397;SDS011;10358;49.590;11.030;2024-01-06T04:12:50;17.40;;;7.23;;
20397;SDS011;10358;49.590;11.030;2024-01-06T04:15:15;14.77;;;7.70;;
20397;SDS011;10358;49.590;11.030;2024-01-06T04:17:41;13.20;;;7.13;;
20397;SDS011;10358;49.590;11.030;2024-01-06T04:20:07;14.73;;;6.73;;
20397;SDS011;10358;49.590;11.030;2024-01-06T04:22:32;11.97;;;6.43;;
20397;SDS011;10358;49.590;11.030;2024-01-06T04:24:58;13.23;;;7.00;;
20397;SDS011;10358;49.590;11.030;2024-01-06T04:27:24;12.70;;;6.83;;
20397;SDS011;10358;49.590;11.030;2024-01-06T04:29:49;9.83;;;6.80;;
20397;SDS011;10358;49.590;11.030;2024-01-06T04:32:18;14.23;;;6.50;;
20397;SDS011;10358;49.590;11.030;2024-01-06T04:34:43;12.63;;;6.53;;
20397;SDS011;10358;49.590;11.030;2024-01-06T04:37:09;12.70;;;7.07;;
20397;SDS011;10358;49.590;11.030;2024-01-06T04:39:34;12.77;;;6.73;;
20397;SDS011;10358;49.590;11.030;2024-01-06T04:42:00;10.30;;;6.30;;
20397;SDS011;10358;49.590;11.030;2024-01-06T04:44:26;12.83;;;7.10;;
20397;SDS011;10358;49.590;11.030;2024-01-06T04:46:53;13.93;;;6.97;;
20397;SDS011;10358;49.590;11.030;2024-01-06T04:49:19;13.97;;;6.43;;
20397;SDS011;10358;49.590;11.030;2024-01-06T04:51:44;13.23;;;6.57;;
20397;SDS011;10358;49.590;11.030;2024-01-06T04:54:10;11.10;;;6.60;;
20397;SDS011;10358;49.590;11.030;2024-01-06T04:56:35;13.83;;;6.80;;
20397;SDS011;10358;49.590;11.030;2024-01-06T04:59:01;13.07;;;6.63;;
20397;SDS011;10358;49.590;11.030;2024-01-06T05:01:27;13.57;;;6.90;;
20397;SDS011;10358;49.590;11.030;2024-01-06T05:03:52;14.47;;;6.80;;
20397;SDS011;10358;49.590;11.030;2024-01-06T05:06:18;11.63;;;6.70;;
20397;SDS011;10358;49.590;11.030;2024-01-06T05:08:43;11.97;;;6.67;;
20397;SDS011;10358;49.590;11.030;2024-01-06T05:11:10;14.13;;;6.97;;
20397;SDS011;10358;49.590;11.030;2024-01-06T05:13:36;13.20;;;7.50;;
20397;SDS011;10358;49.590;11.030;2024-01-06T05:16:01;14.07;;;7.63;;
20397;SDS011;10358;49.590;11.030;2024-01-06T05:18:27;15.03;;;7.17;;
20397;SDS011;10358;49.590;11.030;2024-01-06T05:20:53;13.33;;;7.03;;
20397;SDS011;10358;49.590;11.030;2024-01-06T05:23:19;14.77;;;7.17;;
20397;SDS011;10358;49.590;11.030;2024-01-06T05:25:44;18.43;;;6.93;;
20397;SDS011;10358;49.590;11.030;2024-01-06T05:28:11;12.83;;;7.13;;
20397;SDS011;10358;49.590;11.030;2024-01-06T05:30:37;13.03;;;7.23;;
20397;SDS011;10358;49.590;11.030;2024-01-06T05:33:03;11.47;;;7.20;;
20397;SDS011;10358;49.590;11.030;2024-01-06T05:35:29;12.63;;;7.03;;
20397;SDS011;10358;49.590;11.030;2024-01-06T05:37:54;12.83;;;6.90;;
20397;SDS011;10358;49.590;11.030;2024-01-06T05:40:21;12.90;;;7.13;;
20397;SDS011;10358;49.590;11.030;2024-01-06T05:42:47;12.10;;;6.70;;
20397;SDS011;10358;49.590;11.030;2024-01-06T05:45:12;14.77;;;6.70;;
20397;SDS011;10358;49.590;11.030;2024-01-06T05:47:39;13.63;;;6.87;;
20397;SDS011;10358;49.590;11.030;2024-01-06T05:50:06;13.43;;;7.00;;
20397;SDS011;10358;49.590;11.030;2024-01-06T05:52:35;11.87;;;6.13;;
20397;SDS011;10358;49.590;11.030;2024-01-06T05:55:00;11.07;;;6.43;;
20397;SDS011;10358;49.590;11.030;2024-01-06T05:57:27;13.67;;;7.17;;
20397;SDS011;10358;49.590;11.030;2024-01-06T05:59:53;11.07;;;6.20;;
20397;SDS011;10358;49.590;11.030;2024-01-06T06:02:18;13.50;;;6.97;;
20397;SDS011;10358;49.590;11.030;2024-01-06T06:04:44;13.90;;;6.50;;
20397;SDS011;10358;49.590;11.030;2024-01-06T06:07:09;14.90;;;7.47;;
20397;SDS011;10358;49.590;11.030;2024-01-06T06:09:35;15.63;;;8.70;;
20397;SDS011;10358;49.590;11.030;2024-01-06T06:12:02;17.43;;;7.60;;
20397;SDS011;10358;49.590;11.030;2024-01-06T06:14:28;11.77;;;7.10;;
20397;SDS011;10358;49.590;11.030;2024-01-06T06:16:54;13.27;;;7.10;;
20397;SDS011;10358;49.590;11.030;2024-01-06T06:19:20;13.40;;;6.27;;
20397;SDS011;10358;49.590;11.030;2024-01-06T06:21:46;12.77;;;6.33;;
20397;SDS011;10358;49.590;11.030;2024-01-06T06:24:11;13.33;;;6.40;;
20397;SDS011;10358;49.590;11.030;2024-01-06T06:26:37;14.50;;;6.73;;
20397;SDS011;10358;49.590;11.030;2024-01-06T06:29:02;12.33;;;6.47;;
20397;SDS011;10358;49.590;11.030;2024-01-06T06:31:28;13.07;;;6.50;;
20397;SDS011;10358;49.590;11.030;2024-01-06T06:33:53;12.67;;;6.47;;
20397;SDS011;10358;49.590;11.030;2024-01-06T06:36:20;12.47;;;6.53;;
20397;SDS011;10358;49.590;11.030;2024-01-06T06:38:46;10.33;;;6.07;;
20397;SDS011;10358;49.590;11.030;2024-01-06T06:41:11;11.73;;;5.97;;
20397;SDS011;10358;49.590;11.030;2024-01-06T06:43:37;12.43;;;6.67;;
20397;SDS011;10358;49.590;11.030;2024-01-06T06:46:03;12.73;;;5.87;;
20397;SDS011;10358;49.590;11.030;2024-01-06T06:48:29;11.07;;;6.13;;
20397;SDS011;10358;49.590;11.030;2024-01-06T06:50:54;10.17;;;6.33;;
20397;SDS011;10358;49.590;11.030;2024-01-06T06:53:20;12.97;;;6.60;;
20397;SDS011;10358;49.590;11.030;2024-01-06T06:55:45;11.53;;;6.80;;
20397;SDS011;10358;49.590;11.030;2024-01-06T06:58:12;10.57;;;6.07;;
20397;SDS011;10358;49.590;11.030;2024-01-06T07:00:37;14.33;;;6.50;;
20397;SDS011;10358;49.590;11.030;2024-01-06T07:03:04;12.77;;;6.20;;
20397;SDS011;10358;49.590;11.030;2024-01-06T07:05:29;10.50;;;5.93;;
20397;SDS011;10358;49.590;11.030;2024-01-06T07:07:55;10.20;;;5.93;;
20397;SDS011;10358;49.590;11.030;2024-01-06T07:10:21;9.60;;;6.43;;
20397;SDS011;10358;49.590;11.030;2024-01-06T07:12:47;12.80;;;6.10;;
20397;SDS011;10358;49.590;11.030;2024-01-06T07:15:13;14.40;;;6.93;;
20397;SDS011;10358;49.590;11.030;2024-01-06T07:17:38;15.43;;;6.97;;
20397;SDS011;10358;49.590;11.030;2024-01-06T07:20:05;13.13;;;7.20;;
20397;SDS011;10358;49.590;11.030;2024-01-06T07:22:32;14.03;;;7.50;;
20397;SDS011;10358;49.590;11.030;2024-01-06T07:24:59;11.43;;;7.10;;
20397;SDS011;10358;49.590;11.030;2024-01-06T07:27:25;11.30;;;6.40;;
20397;SDS011;10358;49.590;11.030;2024-01-06T07:29:50;12.27;;;7.03;;
20397;SDS011;10358;49.590;11.030;2024-01-06T07:32:16;13.47;;;7.23;;
20397;SDS011;10358;49.590;11.030;2024-01-06T07:34:41;14.10;;;6.60;;
20397;SDS011;10358;49.590;11.030;2024-01-06T07:37:08;10.77;;;6.60;;
20397;SDS011;10358;49.590;11.030;2024-01-06T07:39:34;13.33;;;6.40;;
20397;SDS011;10358;49.590;11.030;2024-01-06T07:41:59;15.23;;;6.43;;
20397;SDS011;10358;49.590;11.030;2024-01-06T07:44:25;13.00;;;8.07;;
20397;SDS011;10358;49.590;11.030;2024-01-06T07:46:51;14.77;;;7.10;;
20397;SDS011;10358;49.590;11.030;2024-01-06T07:49:17;15.37;;;7.50;;
20397;SDS011;10358;49.590;11.030;2024-01-06T07:51:43;14.13;;;7.60;;
20397;SDS011;10358;49.590;11.030;2024-01-06T07:54:09;11.13;;;6.93;;
20397;SDS011;10358;49.590;11.030;2024-01-06T07:56:35;13.87;;;7.30;;
20397;SDS011;10358;49.590;11.030;2024-01-06T07:59:01;14.50;;;7.37;;
20397;SDS011;10358;49.590;11.030;2024-01-06T08:01:27;11.87;;;7.20;;
20397;SDS011;10358;49.590;11.030;2024-01-06T08:03:52;12.43;;;7.00;;
20397;SDS011;10358;49.590;11.030;2024-01-06T08:06:18;12.37;;;7.20;;
20397;SDS011;10358;49.590;11.030;2024-01-06T08:08:44;13.00;;;7.30;;
20397;SDS011;10358;49.590;11.030;2024-01-06T08:11:11;13.97;;;7.87;;
20397;SDS011;10358;49.590;11.030;2024-01-06T08:13:36;14.13;;;7.37;;
20397;SDS011;10358;49.590;11.030;2024-01-06T08:16:02;11.30;;;6.67;;
20397;SDS011;10358;49.590;11.030;2024-01-06T08:18:28;15.30;;;6.97;;
20397;SDS011;10358;49.590;11.030;2024-01-06T08:20:54;11.53;;;6.10;;
20397;SDS011;10358;49.590;11.030;2024-01-06T08:23:20;8.93;;;6.03;;
20397;SDS011;10358;49.590;11.030;2024-01-06T08:25:45;10.57;;;5.70;;
20397;SDS011;10358;49.590;11.030;2024-01-06T08:28:11;9.00;;;5.77;;
20397;SDS011;10358;49.590;11.030;2024-01-06T08:30:37;9.80;;;5.43;;
20397;SDS011;10358;49.590;11.030;2024-01-06T08:33:03;14.00;;;5.93;;
20397;SDS011;10358;49.590;11.030;2024-01-06T08:35:29;10.17;;;5.50;;
20397;SDS011;10358;49.590;11.030;2024-01-06T08:37:55;12.23;;;5.57;;
20397;SDS011;10358;49.590;11.030;2024-01-06T08:40:20;10.53;;;5.67;;
20397;SDS011;10358;49.590;11.030;2024-01-06T08:42:46;8.07;;;5.30;;
20397;SDS011;10358;49.590;11.030;2024-01-06T08:45:12;10.77;;;5.63;;
20397;SDS011;10358;49.590;11.030;2024-01-06T08:47:37;11.57;;;5.60;;
20397;SDS011;10358;49.590;11.030;2024-01-06T08:50:03;13.07;;;5.77;;
20397;SDS011;10358;49.590;11.030;2024-01-06T08:52:29;11.03;;;6.00;;
20397;SDS011;10358;49.590;11.030;2024-01-06T08:54:56;11.30;;;6.40;;
20397;SDS011;10358;49.590;11.030;2024-01-06T08:57:21;10.43;;;5.90;;
20397;SDS011;10358;49.590;11.030;2024-01-06T08:59:47;16.60;;;6.83;;
20397;SDS011;10358;49.590;11.030;2024-01-06T09:02:12;13.50;;;6.80;;
20397;SDS011;10358;49.590;11.030;2024-01-06T09:04:38;17.17;;;8.27;;
20397;SDS011;10358;49.590;11.030;2024-01-06T09:07:04;12.30;;;8.60;;
20397;SDS011;10358;49.590;11.030;2024-01-06T09:09:30;17.83;;;9.57;;
20397;SDS011;10358;49.590;11.030;2024-01-06T09:11:55;15.30;;;9.13;;
20397;SDS011;10358;49.590;11.030;2024-01-06T09:14:22;15.80;;;9.43;;
20397;SDS011;10358;49.590;11.030;2024-01-06T09:16:48;11.97;;;8.03;;
20397;SDS011;10358;49.590;11.030;2024-01-06T09:19:13;15.00;;;8.30;;
20397;SDS011;10358;49.590;11.030;2024-01-06T09:21:39;17.33;;;7.97;;
20397;SDS011;10358;49.590;11.030;2024-01-06T09:24:05;14.60;;;7.33;;
20397;SDS011;10358;49.590;11.030;2024-01-06T09:26:34;8.97;;;6.37;;
20397;SDS011;10358;49.590;11.030;2024-01-06T09:29:00;16.50;;;7.17;;
20397;SDS011;10358;49.590;11.030;2024-01-06T09:31:26;14.17;;;6.87;;
20397;SDS011;10358;49.590;11.030;2024-01-06T09:33:52;12.53;;;7.43;;
20397;SDS011;10358;49.590;11.030;2024-01-06T09:36:17;13.67;;;7.47;;
20397;SDS011;10358;49.590;11.030;2024-01-06T09:38:43;14.40;;;6.90;;
20397;SDS011;10358;49.590;11.030;2024-01-06T09:41:09;13.83;;;7.80;;
20397;SDS011;10358;49.590;11.030;2024-01-06T09:43:35;13.30;;;7.70;;
20397;SDS011;10358;49.590;11.030;2024-01-06T09:46:05;16.20;;;8.20;;
20397;SDS011;10358;49.590;11.030;2024-01-06T09:48:39;19.17;;;9.03;;
20397;SDS011;10358;49.590;11.030;2024-01-06T09:51:11;15.20;;;7.97;;
20397;SDS011;10358;49.590;11.030;2024-01-06T09:53:40;17.23;;;8.30;;
20397;SDS011;10358;49.590;11.030;2024-01-06T09:56:13;14.93;;;8.23;;
20397;SDS011;10358;49.590;11.030;2024-01-06T09:58:40;16.90;;;8.10;;
20397;SDS011;10358;49.590;11.030;2024-01-06T10:01:06;19.87;;;8.13;;
20397;SDS011;10358;49.590;11.030;2024-01-06T10:03:33;13.13;;;7.00;;
20397;SDS011;10358;49.590;11.030;2024-01-06T10:06:00;17.73;;;7.87;;
20397;SDS011;10358;49.590;11.030;2024-01-06T10:08:28;14.03;;;7.17;;
20397;SDS011;10358;49.590;11.030;2024-01-06T10:10:54;13.47;;;7.27;;
20397;SDS011;10358;49.590;11.030;2024-01-06T10:13:20;11.13;;;6.47;;
20397;SDS011;10358;49.590;11.030;2024-01-06T10:15:46;15.63;;;6.20;;
20397;SDS011;10358;49.590;11.030;2024-01-06T10:18:12;10.10;;;6.03;;
20397;SDS011;10358;49.590;11.030;2024-01-06T10:20:38;9.27;;;6.00;;
20397;SDS011;10358;49.590;11.030;2024-01-06T10:23:04;12.10;;;5.73;;
20397;SDS011;10358;49.590;11.030;2024-01-06T10:25:30;15.40;;;5.97;;
20397;SDS011;10358;49.590;11.030;2024-01-06T10:28:00;9.87;;;5.73;;
20397;SDS011;10358;49.590;11.030;2024-01-06T10:30:29;12.40;;;6.57;;
20397;SDS011;10358;49.590;11.030;2024-01-06T10:32:55;13.57;;;7.40;;
20397;SDS011;10358;49.590;11.030;2024-01-06T10:35:21;12.73;;;6.00;;
20397;SDS011;10358;49.590;11.030;2024-01-06T10:37:49;13.80;;;6.43;;
20397;SDS011;10358;49.590;11.030;2024-01-06T10:40:15;10.83;;;6.20;;
20397;SDS011;10358;49.590;11.030;2024-01-06T10:42:41;14.87;;;6.50;;
20397;SDS011;10358;49.590;11.030;2024-01-06T10:45:12;12.03;;;6.00;;
20397;SDS011;10358;49.590;11.030;2024-01-06T10:47:39;11.07;;;5.20;;
20397;SDS011;10358;49.590;11.030;2024-01-06T10:50:06;11.17;;;5.80;;
20397;SDS011;10358;49.590;11.030;2024-01-06T10:52:35;10.70;;;6.03;;
20397;SDS011;10358;49.590;11.030;2024-01-06T10:55:03;13.23;;;6.07;;
20397;SDS011;10358;49.590;11.030;2024-01-06T10:57:36;10.67;;;6.03;;
20397;SDS011;10358;49.590;11.030;2024-01-06T11:00:04;13.70;;;5.53;;
20397;SDS011;10358;49.590;11.030;2024-01-06T11:02:31;14.50;;;6.13;;
20397;SDS011;10358;49.590;11.030;2024-01-06T11:04:57;12.73;;;6.10;;
20397;SDS011;10358;49.590;11.030;2024-01-06T11:07:23;9.47;;;5.90;;
20397;SDS011;10358;49.590;11.030;2024-01-06T11:09:52;14.70;;;6.30;;
20397;SDS011;10358;49.590;11.030;2024-01-06T11:12:19;11.57;;;6.07;;
20397;SDS011;10358;49.590;11.030;2024-01-06T11:14:45;15.57;;;6.57;;
20397;SDS011;10358;49.590;11.030;2024-01-06T11:17:12;13.80;;;5.90;;
20397;SDS011;10358;49.590;11.030;2024-01-06T11:24:55;10.87;;;4.97;;
20397;SDS011;10358;49.590;11.030;2024-01-06T11:27:23;14.27;;;6.00;;
20397;SDS011;10358;49.590;11.030;2024-01-06T11:29:54;10.30;;;5.67;;
20397;SDS011;10358;49.590;11.030;2024-01-06T11:34:53;10.20;;;6.00;;
20397;SDS011;10358;49.590;11.030;2024-01-06T11:37:24;12.50;;;6.63;;
20397;SDS011;10358;49.590;11.030;2024-01-06T11:39:50;8.93;;;5.80;;
20397;SDS011;10358;49.590;11.030;2024-01-06T11:42:16;10.70;;;5.80;;
20397;SDS011;10358;49.590;11.030;2024-01-06T11:44:44;10.47;;;5.80;;
20397;SDS011;10358;49.590;11.030;2024-01-06T11:47:14;11.93;;;5.90;;
20397;SDS011;10358;49.590;11.030;2024-01-06T11:49:43;10.87;;;5.83;;
20397;SDS011;10358;49.590;11.030;2024-01-06T11:52:10;14.77;;;6.03;;
20397;SDS011;10358;49.590;11.030;2024-01-06T11:54:36;11.13;;;6.10;;
20397;SDS011;10358;49.590;11.030;2024-01-06T11:57:02;12.40;;;6.03;;
20397;SDS011;10358;49.590;11.030;2024-01-06T11:59:28;15.53;;;5.53;;
20397;SDS011;10358;49.590;11.030;2024-01-06T12:01:53;10.37;;;5.77;;
20397;SDS011;10358;49.590;11.030;2024-01-06T12:04:19;13.73;;;6.13;;
20397;SDS011;10358;49.590;11.030;2024-01-06T12:06:47;11.77;;;5.37;;
20397;SDS011;10358;49.590;11.030;2024-01-06T12:09:12;14.23;;;5.87;;
20397;SDS011;10358;49.590;11.030;2024-01-06T12:11:41;11.60;;;5.47;;
20397;SDS011;10358;49.590;11.030;2024-01-06T12:14:10;14.93;;;5.77;;
20397;SDS011;10358;49.590;11.030;2024-01-06T12:16:36;13.50;;;5.47;;
20397;SDS011;10358;49.590;11.030;2024-01-06T12:19:01;9.03;;;5.20;;
20397;SDS011;10358;49.590;11.030;2024-01-06T12:21:28;14.00;;;5.80;;
20397;SDS011;10358;49.590;11.030;2024-01-06T12:24:11;11.33;;;5.57;;
20397;SDS011;10358;49.590;11.030;2024-01-06T12:26:43;12.13;;;5.60;;
20397;SDS011;10358;49.590;11.030;2024-01-06T12:29:09;11.83;;;6.00;;
20397;SDS011;10358;49.590;11.030;2024-01-06T12:31:36;12.30;;;6.20;;
20397;SDS011;10358;49.590;11.030;2024-01-06T12:34:02;13.03;;;6.37;;
20397;SDS011;10358;49.590;11.030;2024-01-06T12:36:29;10.43;;;5.77;;
20397;SDS011;10358;49.590;11.030;2024-01-06T12:38:56;15.13;;;6.33;;
20397;SDS011;10358;49.590;11.030;2024-01-06T12:41:23;12.37;;;6.70;;
20397;SDS011;10358;49.590;11.030;2024-01-06T12:43:49;13.77;;;5.83;;
20397;SDS011;10358;49.590;11.030;2024-01-06T12:46:14;12.30;;;5.97;;
20397;SDS011;10358;49.590;11.030;2024-01-06T12:48:41;11.73;;;5.73;;
20397;SDS011;10358;49.590;11.030;2024-01-06T12:51:07;12.47;;;5.77;;
20397;SDS011;10358;49.590;11.030;2024-01-06T12:53:32;12.37;;;5.70;;
20397;SDS011;10358;49.590;11.030;2024-01-06T12:55:58;10.13;;;6.53;;
20397;SDS011;10358;49.590;11.030;2024-01-06T12:58:23;10.10;;;5.73;;
20397;SDS011;10358;49.590;11.030;2024-01-06T13:00:49;15.10;;;5.83;;
20397;SDS011;10358;49.590;11.030;2024-01-06T13:03:14;11.73;;;6.00;;
20397;SDS011;10358;49.590;11.030;2024-01-06T13:05:40;15.63;;;6.80;;
20397;SDS011;10358;49.590;11.030;2024-01-06T13:08:05;13.27;;;6.67;;
20397;SDS011;10358;49.590;11.030;2024-01-06T13:10:31;12.70;;;6.53;;
20397;SDS011;10358;49.590;11.030;2024-01-06T13:12:57;12.87;;;6.60;;
20397;SDS011;10358;49.590;11.030;2024-01-06T13:15:22;11.93;;;6.20;;
20397;SDS011;10358;49.590;11.030;2024-01-06T13:17:48;15.67;;;5.90;;
20397;SDS011;10358;49.590;11.030;2024-01-06T13:20:16;12.43;;;6.33;;
20397;SDS011;10358;49.590;11.030;2024-01-06T13:22:42;10.40;;;6.30;;
20397;SDS011;10358;49.590;11.030;2024-01-06T13:25:07;10.47;;;6.00;;
20397;SDS011;10358;49.590;11.030;2024-01-06T13:27:34;15.47;;;5.83;;
20397;SDS011;10358;49.590;11.030;2024-01-06T13:30:01;14.20;;;6.63;;
20397;SDS011;10358;49.590;11.030;2024-01-06T13:32:27;9.20;;;5.57;;
20397;SDS011;10358;49.590;11.030;2024-01-06T13:34:54;12.03;;;7.17;;
20397;SDS011;10358;49.590;11.030;2024-01-06T13:37:26;11.43;;;5.67;;
20397;SDS011;10358;49.590;11.030;2024-01-06T13:39:52;12.33;;;7.13;;
20397;SDS011;10358;49.590;11.030;2024-01-06T13:42:18;9.87;;;6.07;;
20397;SDS011;10358;49.590;11.030;2024-01-06T13:44:46;9.83;;;5.93;;
20397;SDS011;10358;49.590;11.030;2024-01-06T13:47:13;13.27;;;6.17;;
20397;SDS011;10358;49.590;11.030;2024-01-06T13:49:39;10.13;;;5.73;;
20397;SDS011;10358;49.590;11.030;2024-01-06T13:52:04;10.67;;;5.93;;
20397;SDS011;10358;49.590;11.030;2024-01-06T13:54:32;10.80;;;5.60;;
20397;SDS011;10358;49.590;11.030;2024-01-06T13:57:01;11.27;;;6.10;;
20397;SDS011;10358;49.590;11.030;2024-01-06T13:59:27;13.47;;;5.70;;
20397;SDS011;10358;49.590;11.030;2024-01-06T14:01:53;10.93;;;5.83;;
20397;SDS011;10358;49.590;11.030;2024-01-06T14:04:19;13.03;;;6.10;;
20397;SDS011;10358;49.590;11.030;2024-01-06T14:06:44;14.50;;;6.00;;
20397;SDS011;10358;49.590;11.030;2024-01-06T14:09:12;12.70;;;6.23;;
20397;SDS011;10358;49.590;11.030;2024-01-06T14:11:38;9.80;;;6.37;;
20397;SDS011;10358;49.590;11.030;2024-01-06T14:14:04;14.70;;;6.40;;
20397;SDS011;10358;49.590;11.030;2024-01-06T14:16:30;9.63;;;5.93;;
20397;SDS011;10358;49.590;11.030;2024-01-06T14:18:55;11.73;;;6.27;;
20397;SDS011;10358;49.590;11.030;2024-01-06T14:21:21;10.97;;;6.20;;
20397;SDS011;10358;49.590;11.030;2024-01-06T14:23:46;10.13;;;6.27;;
20397;SDS011;10358;49.590;11.030;2024-01-06T14:26:14;9.97;;;5.53;;